createdAt,value
2023-02-22T00:00:42.909Z,8.31
2023-02-22T00:03:49.912Z,8.26
2023-02-22T00:06:52.478Z,8.22
2023-02-22T00:09:56.926Z,8.21
2023-02-22T00:12:59.724Z,7.99
2023-02-22T00:16:02.992Z,7.85
2023-02-22T00:19:06.049Z,7.74
2023-02-22T00:22:08.981Z,7.53
2023-02-22T00:25:11.790Z,7.39
2023-02-22T00:28:15.326Z,7.36
2023-02-22T00:31:19.737Z,7.18
2023-02-22T00:34:24.265Z,7.02
2023-02-22T00:37:27.246Z,6.88
2023-02-22T00:40:32.812Z,6.91
2023-02-22T00:43:35.491Z,6.76
2023-02-22T00:46:38.428Z,6.65
2023-02-22T00:49:41.704Z,6.61
2023-02-22T00:52:45.907Z,6.59
2023-02-22T00:55:48.610Z,6.52
2023-02-22T00:58:51.779Z,6.45
2023-02-22T01:01:56.642Z,6.49
2023-02-22T01:04:59.777Z,6.87
2023-02-22T01:08:03.882Z,6.94
2023-02-22T01:11:07.357Z,7.23
2023-02-22T01:14:09.894Z,7.41
2023-02-22T01:17:12.777Z,7.44
2023-02-22T01:20:18.567Z,7.60
2023-02-22T01:23:21.605Z,7.64
2023-02-22T01:26:24.227Z,7.61
2023-02-22T01:29:28.114Z,7.66
2023-02-22T01:32:30.742Z,7.71
2023-02-22T01:35:36.761Z,7.69
2023-02-22T01:38:39.645Z,7.64
2023-02-22T01:41:46.161Z,7.55
2023-02-22T01:45:27.942Z,7.45
2023-02-22T01:48:42.172Z,7.39
2023-02-22T01:51:48.990Z,7.45
2023-02-22T01:54:57.534Z,7.42
2023-02-22T01:58:00.279Z,7.49
2023-02-22T02:01:03.481Z,7.73
2023-02-22T02:04:12.449Z,7.67
2023-02-22T02:07:18.717Z,7.73
2023-02-22T02:10:24.329Z,7.77
2023-02-22T02:13:28.277Z,7.93
2023-02-22T02:16:49.570Z,8.07
2023-02-22T02:20:04.417Z,8.17
2023-02-22T02:23:49.073Z,8.27
2023-02-22T02:27:03.207Z,8.30
2023-02-22T02:30:22.557Z,8.19
2023-02-22T02:33:28.224Z,8.27
2023-02-22T02:36:57.795Z,8.21
2023-02-22T02:40:20.291Z,8.29
2023-02-22T02:44:09.910Z,8.05
2023-02-22T02:47:24.626Z,7.89
2023-02-22T02:50:44.244Z,7.87
2023-02-22T02:53:51.235Z,7.88
2023-02-22T02:56:56.884Z,7.85
2023-02-22T03:00:00.708Z,7.83
2023-02-22T03:03:50.013Z,7.81
2023-02-22T03:07:18.029Z,7.78
2023-02-22T03:10:43.230Z,7.84
2023-02-22T03:14:24.606Z,7.91
2023-02-22T03:17:49.650Z,8.11
2023-02-22T03:21:16.599Z,8.10
2023-02-22T03:24:31.190Z,8.32
2023-02-22T03:27:48.461Z,8.37
2023-02-22T03:30:59.091Z,8.40
2023-02-22T03:34:08.743Z,8.41
2023-02-22T03:37:18.025Z,8.40
2023-02-22T03:40:33.189Z,8.36
2023-02-22T03:43:44.838Z,8.46
2023-02-22T03:46:50.965Z,8.49
2023-02-22T03:50:06.952Z,8.58
2023-02-22T03:53:12.688Z,8.55
2023-02-22T03:56:23.436Z,8.50
2023-02-22T03:59:27.776Z,8.47
2023-02-22T04:02:30.942Z,8.48
2023-02-22T04:05:34.026Z,8.58
2023-02-22T04:08:37.509Z,8.59
2023-02-22T04:11:40.522Z,8.52
2023-02-22T04:14:43.189Z,8.46
2023-02-22T04:17:46.870Z,8.39
2023-02-22T04:20:52.617Z,8.33
2023-02-22T04:23:57.293Z,8.24
2023-02-22T04:27:00.117Z,8.15
2023-02-22T04:30:04.491Z,8.05
2023-02-22T04:33:08.913Z,7.92
2023-02-22T04:36:15.974Z,7.98
2023-02-22T04:39:19.224Z,7.90
2023-02-22T04:42:22.105Z,7.74
2023-02-22T04:45:24.735Z,7.61
2023-02-22T04:48:27.859Z,7.59
2023-02-22T04:51:30.683Z,7.60
2023-02-22T04:54:34.363Z,7.77
2023-02-22T04:57:37.241Z,7.76
2023-02-22T05:00:41.918Z,7.80
2023-02-22T05:03:44.705Z,7.74
2023-02-22T05:06:48.156Z,7.77
2023-02-22T05:09:50.780Z,7.74
2023-02-22T05:12:53.775Z,7.65
2023-02-22T05:15:56.337Z,7.55
2023-02-22T05:18:59.431Z,7.45
2023-02-22T05:22:02.046Z,7.38
2023-02-22T05:25:05.178Z,7.26
2023-02-22T05:28:12.693Z,7.14
2023-02-22T05:31:17.621Z,7.03
2023-02-22T05:34:20.575Z,6.91
2023-02-22T05:37:23.431Z,6.91
2023-02-22T05:40:27.142Z,6.76
2023-02-22T05:43:30.662Z,6.69
2023-02-22T05:46:33.316Z,6.69
2023-02-22T05:49:36.330Z,6.64
2023-02-22T05:52:39.320Z,6.73
2023-02-22T05:55:42.286Z,6.87
2023-02-22T05:58:44.873Z,6.97
2023-02-22T06:01:47.929Z,7.19
2023-02-22T06:04:50.937Z,7.28
2023-02-22T06:07:53.952Z,7.45
2023-02-22T06:10:57.549Z,7.57
2023-02-22T06:14:00.197Z,7.64
2023-02-22T06:17:03.451Z,7.67
2023-02-22T06:20:08.105Z,7.72
2023-02-22T06:23:11.474Z,7.82
2023-02-22T06:26:19.750Z,7.93
2023-02-22T06:29:24.633Z,8.10
2023-02-22T06:32:27.507Z,8.25
2023-02-22T06:35:30.546Z,8.51
2023-02-22T06:38:33.347Z,8.73
2023-02-22T06:41:41.291Z,8.92
2023-02-22T06:44:43.843Z,9.10
2023-02-22T06:47:46.735Z,9.23
2023-02-22T06:50:50.040Z,9.33
2023-02-22T06:53:53.600Z,9.48
2023-02-22T06:56:56.582Z,9.78
2023-02-22T06:59:59.437Z,9.88
2023-02-22T07:03:04.374Z,9.98
2023-02-22T07:06:08.289Z,9.93
2023-02-22T07:09:12.987Z,10.02
2023-02-22T07:12:16.117Z,9.89
2023-02-22T07:15:23.796Z,9.87
2023-02-22T07:18:26.964Z,10.02
2023-02-22T07:21:30.910Z,10.02
2023-02-22T07:24:35.216Z,10.09
2023-02-22T07:27:39.845Z,10.16
2023-02-22T07:30:43.760Z,10.30
2023-02-22T07:33:47.531Z,10.44
2023-02-22T07:36:50.518Z,10.43
2023-02-22T07:39:53.172Z,10.51
2023-02-22T07:43:00.661Z,10.67
2023-02-22T07:58:23.944Z,11.01
2023-02-22T08:01:27.266Z,10.90
2023-02-22T08:04:30.263Z,10.94
2023-02-22T08:07:32.955Z,11.01
2023-02-22T08:10:36.399Z,11.18
2023-02-22T08:13:39.827Z,11.28
2023-02-22T08:16:43.233Z,11.16
2023-02-22T08:19:46.010Z,11.16
2023-02-22T08:22:49.725Z,11.29
2023-02-22T08:25:53.122Z,11.29
2023-02-22T08:28:57.014Z,11.47
2023-02-22T08:32:00.699Z,11.44
2023-02-22T08:35:04.319Z,11.55
2023-02-22T08:38:08.490Z,11.56
2023-02-22T08:41:11.395Z,11.53
2023-02-22T08:44:14.125Z,11.69
2023-02-22T08:47:17.005Z,12.04
2023-02-22T08:50:27.699Z,12.36
2023-02-22T08:53:32.830Z,12.80
2023-02-22T08:56:35.524Z,12.91
2023-02-22T08:59:38.569Z,13.25
2023-02-22T09:02:41.620Z,13.51
2023-02-22T09:05:45.301Z,13.75
2023-02-22T09:08:48.091Z,13.74
2023-02-22T09:11:53.004Z,13.91
2023-02-22T09:14:56.067Z,13.96
2023-02-22T09:17:59.858Z,14.11
2023-02-22T09:21:03.756Z,13.88
2023-02-22T09:24:10.761Z,14.17
2023-02-22T09:27:13.472Z,14.08
2023-02-22T09:30:24.003Z,14.28
2023-02-22T09:33:26.697Z,14.38
2023-02-22T09:36:29.620Z,14.41
2023-02-22T09:39:37.572Z,14.68
2023-02-22T09:42:50.378Z,14.49
2023-02-22T09:46:22.032Z,14.37
2023-02-22T09:49:34.383Z,14.10
2023-02-22T09:52:49.037Z,14.55
2023-02-22T09:55:53.369Z,14.73
2023-02-22T09:59:00.825Z,14.88
2023-02-22T10:02:28.618Z,14.80
2023-02-22T10:05:44.038Z,14.46
2023-02-22T10:08:47.447Z,14.44
2023-02-22T10:11:55.448Z,14.42
2023-02-22T10:15:21.933Z,14.45
2023-02-22T10:18:49.348Z,14.79
2023-02-22T10:21:57.971Z,14.70
2023-02-22T10:25:12.857Z,14.98
2023-02-22T10:28:20.915Z,15.13
2023-02-22T10:31:27.147Z,15.19
2023-02-22T10:34:39.561Z,15.11
2023-02-22T10:37:42.685Z,15.36
2023-02-22T10:40:51.582Z,15.21
2023-02-22T10:43:55.856Z,15.16
2023-02-22T10:47:01.686Z,15.20
2023-02-22T10:50:05.050Z,15.13
2023-02-22T10:53:10.347Z,14.99
2023-02-22T10:56:20.943Z,14.84
2023-02-22T10:59:42.519Z,14.70
2023-02-22T11:02:58.626Z,14.17
2023-02-22T11:06:22.573Z,13.48
2023-02-22T11:09:25.763Z,13.40
2023-02-22T11:12:28.600Z,13.32
2023-02-22T11:15:31.719Z,13.42
2023-02-22T11:18:35.670Z,13.81
2023-02-22T11:21:39.802Z,14.01
2023-02-22T11:24:50.803Z,14.16
2023-02-22T11:27:55.602Z,14.30
2023-02-22T11:31:14.726Z,14.48
2023-02-22T11:34:32.068Z,14.12
2023-02-22T11:37:38.879Z,14.28
2023-02-22T11:40:42.387Z,14.36
2023-02-22T11:43:50.104Z,14.22
2023-02-22T11:46:55.806Z,14.14
2023-02-22T11:49:58.477Z,13.79
2023-02-22T11:53:26.919Z,13.86
2023-02-22T11:56:40.354Z,13.94
2023-02-22T12:00:15.070Z,13.94
2023-02-22T12:03:37.605Z,13.84
2023-02-22T12:06:43.227Z,13.76
2023-02-22T12:10:13.274Z,13.66
2023-02-22T12:13:29.580Z,13.69
2023-02-22T12:16:59.482Z,13.86
2023-02-22T12:20:39.695Z,14.07
2023-02-22T12:24:07.615Z,14.24
2023-02-22T12:27:29.269Z,14.20
2023-02-22T12:30:39.417Z,14.00
2023-02-22T12:34:09.652Z,14.02
2023-02-22T12:37:25.243Z,14.25
2023-02-22T12:40:37.298Z,14.22
2023-02-22T12:43:46.220Z,14.14
2023-02-22T12:46:58.349Z,14.17
2023-02-22T12:50:23.417Z,14.29
2023-02-22T12:53:31.775Z,14.16
2023-02-22T12:56:41.279Z,14.04
2023-02-22T12:59:52.978Z,13.87
2023-02-22T13:03:01.230Z,13.90
2023-02-22T13:06:30.004Z,13.75
2023-02-22T13:09:56.678Z,13.81
2023-02-22T13:13:27.469Z,13.86
2023-02-22T13:16:52.609Z,13.85
2023-02-22T13:20:32.038Z,13.75
2023-02-22T13:23:55.630Z,13.76
2023-02-22T13:27:13.301Z,13.75
2023-02-22T13:30:41.877Z,13.97
2023-02-22T13:33:47.162Z,13.95
2023-02-22T13:37:21.319Z,14.05
2023-02-22T13:40:27.466Z,14.12
2023-02-22T13:43:58.698Z,13.95
2023-02-22T13:47:01.336Z,13.98
2023-02-22T13:50:31.239Z,13.85
2023-02-22T13:53:49.024Z,13.78
2023-02-22T13:56:54.059Z,13.94
2023-02-22T14:00:14.838Z,13.75
2023-02-22T14:03:24.112Z,13.74
2023-02-22T14:06:38.063Z,13.66
2023-02-22T14:09:51.356Z,13.64
2023-02-22T14:13:05.129Z,13.65
2023-02-22T14:16:07.957Z,13.49
2023-02-22T14:19:13.382Z,13.61
2023-02-22T14:22:27.788Z,13.64
2023-02-22T14:25:41.926Z,13.55
2023-02-22T14:28:54.527Z,13.42
2023-02-22T14:32:15.097Z,13.29
2023-02-22T14:35:27.298Z,13.15
2023-02-22T14:38:32.665Z,13.12
2023-02-22T14:41:38.167Z,13.08
2023-02-22T14:44:49.021Z,13.05
2023-02-22T14:48:01.248Z,12.98
2023-02-22T14:51:20.258Z,12.82
2023-02-22T14:54:32.983Z,12.79
2023-02-22T14:57:48.392Z,12.76
2023-02-22T15:00:56.679Z,12.75
2023-02-22T15:04:18.224Z,12.79
2023-02-22T15:07:27.214Z,12.64
2023-02-22T15:10:42.988Z,12.57
2023-02-22T15:13:51.341Z,12.49
2023-02-22T15:17:01.487Z,12.45
2023-02-22T15:20:10.118Z,12.37
2023-02-22T15:23:16.618Z,12.39
2023-02-22T15:26:29.530Z,12.28
2023-02-22T15:29:36.995Z,12.26
2023-02-22T15:32:53.319Z,12.25
2023-02-22T15:36:04.451Z,12.08
2023-02-22T15:39:22.865Z,12.05
2023-02-22T15:42:28.334Z,11.94
2023-02-22T15:45:32.745Z,11.88
2023-02-22T15:48:37.322Z,11.80
2023-02-22T15:51:46.471Z,11.72
2023-02-22T15:54:51.869Z,11.64
2023-02-22T15:57:57.898Z,11.55
2023-02-22T16:01:14.629Z,11.50
2023-02-22T16:04:21.221Z,11.46
2023-02-22T16:07:24.305Z,11.35
2023-02-22T16:10:32.904Z,11.24
2023-02-22T16:13:36.382Z,11.18
2023-02-22T16:16:43.226Z,11.09
2023-02-22T16:19:46.159Z,11.03
2023-02-22T16:22:49.854Z,11.01
2023-02-22T16:26:06.232Z,10.95
2023-02-22T16:29:09.670Z,10.89
2023-02-22T16:32:13.972Z,10.84
2023-02-22T16:35:20.698Z,10.79
2023-02-22T16:38:27.517Z,10.74
2023-02-22T16:41:30.980Z,10.71
2023-02-22T16:44:34.635Z,10.66
2023-02-22T16:47:38.225Z,10.73
2023-02-22T16:50:41.393Z,10.77
2023-02-22T16:53:44.737Z,10.65
2023-02-22T16:56:47.298Z,10.61
2023-02-22T16:59:52.696Z,10.55
2023-02-22T17:02:55.911Z,10.50
2023-02-22T17:05:58.800Z,10.43
2023-02-22T17:09:01.354Z,10.38
2023-02-22T17:12:04.393Z,10.30
2023-02-22T17:15:07.426Z,10.17
2023-02-22T17:18:22.707Z,10.08
2023-02-22T17:21:25.346Z,9.97
2023-02-22T17:24:29.303Z,9.84
2023-02-22T17:27:33.271Z,9.79
2023-02-22T17:30:37.018Z,9.68
2023-02-22T17:33:40.591Z,9.58
2023-02-22T17:36:43.725Z,9.48
2023-02-22T17:39:46.499Z,9.43
2023-02-22T17:42:55.264Z,9.37
2023-02-22T17:45:58.340Z,9.34
2023-02-22T17:49:03.382Z,9.28
2023-02-22T17:52:06.427Z,9.21
2023-02-22T17:55:10.825Z,9.11
2023-02-22T17:58:14.743Z,9.14
2023-02-22T18:01:21.355Z,9.07
2023-02-22T18:04:24.677Z,8.91
2023-02-22T18:07:27.580Z,8.80
2023-02-22T18:10:31.712Z,8.70
2023-02-22T18:13:34.762Z,8.90
2023-02-22T18:16:39.449Z,8.90
2023-02-22T18:19:42.439Z,8.92
2023-02-22T18:22:46.155Z,8.90
2023-02-22T18:26:09.084Z,8.77
2023-02-22T18:29:13.120Z,8.65
2023-02-22T18:32:15.957Z,8.62
2023-02-22T18:35:19.141Z,8.68
2023-02-22T18:38:25.694Z,8.70
2023-02-22T18:41:28.944Z,8.53
2023-02-22T18:44:32.418Z,8.43
2023-02-22T18:47:43.103Z,8.39
2023-02-22T18:50:46.008Z,8.46
2023-02-22T18:53:50.121Z,8.53
2023-02-22T18:56:52.869Z,8.54
2023-02-22T18:59:56.975Z,8.54
2023-02-22T19:03:01.380Z,8.43
2023-02-22T19:06:09.937Z,8.31
2023-02-22T19:09:12.875Z,8.19
2023-02-22T19:12:17.116Z,8.18
2023-02-22T19:15:20.172Z,8.19
2023-02-22T19:18:25.054Z,8.17
2023-02-22T19:21:30.355Z,8.14
2023-02-22T19:24:36.545Z,8.17
2023-02-22T19:27:41.699Z,8.16
2023-02-22T19:30:45.122Z,8.26
2023-02-22T19:33:51.883Z,8.27
2023-02-22T19:36:56.051Z,8.33
2023-02-22T19:40:00.417Z,8.31
2023-02-22T19:43:03.589Z,8.29
2023-02-22T19:46:07.884Z,8.26
2023-02-22T19:49:11.384Z,8.27
2023-02-22T19:52:14.584Z,8.26
2023-02-22T19:55:17.825Z,8.24
2023-02-22T19:58:20.446Z,8.25
2023-02-22T20:01:27.657Z,8.24
2023-02-22T20:04:30.933Z,8.20
2023-02-22T20:07:33.847Z,8.22
2023-02-22T20:10:37.161Z,8.22
2023-02-22T20:13:41.486Z,8.24
2023-02-22T20:16:44.719Z,8.24
2023-02-22T20:19:48.869Z,8.24
2023-02-22T20:22:52.359Z,8.20
2023-02-22T20:25:56.276Z,8.17
2023-02-22T20:29:00.288Z,8.26
2023-02-22T20:32:03.829Z,8.18
2023-02-22T20:35:08.022Z,8.14
2023-02-22T20:38:13.776Z,8.13
2023-02-22T20:41:24.254Z,8.14
2023-02-22T20:44:27.382Z,8.07
2023-02-22T20:47:30.771Z,8.03
2023-02-22T20:50:35.518Z,7.98
2023-02-22T20:53:41.754Z,7.99
2023-02-22T20:56:46.186Z,8.05
2023-02-22T20:59:49.131Z,8.07
2023-02-22T21:02:52.631Z,8.08
2023-02-22T21:05:59.376Z,8.04
2023-02-22T21:09:07.285Z,8.01
2023-02-22T21:12:13.503Z,8.00
2023-02-22T21:15:16.561Z,7.99
2023-02-22T21:18:20.653Z,7.91
2023-02-22T21:21:24.244Z,7.86
2023-02-22T21:24:28.972Z,7.85
2023-02-22T21:27:31.829Z,7.79
2023-02-22T21:30:35.154Z,7.93
2023-02-22T21:33:43.605Z,7.79
2023-02-22T21:36:47.053Z,7.78
2023-02-22T21:39:50.047Z,7.74
2023-02-22T21:42:53.320Z,7.73
2023-02-22T21:45:56.099Z,7.74
2023-02-22T21:48:59.329Z,7.75
2023-02-22T21:52:02.045Z,7.74
2023-02-22T21:55:06.248Z,7.72
2023-02-22T21:58:09.547Z,7.72
2023-02-22T22:01:17.348Z,7.73
2023-02-22T22:04:21.599Z,7.73
2023-02-22T22:07:24.271Z,7.76
2023-02-22T22:10:33.200Z,7.77
2023-02-22T22:13:39.206Z,7.78
2023-02-22T22:16:42.047Z,7.79
2023-02-22T22:19:46.229Z,7.78
2023-02-22T22:22:49.227Z,7.79
2023-02-22T22:25:51.862Z,7.79
2023-02-22T22:28:58.109Z,7.75
2023-02-22T22:32:01.074Z,7.72
2023-02-22T22:35:07.199Z,7.70
2023-02-22T22:38:11.351Z,7.64
2023-02-22T22:41:17.006Z,7.59
2023-02-22T22:44:22.363Z,7.56
2023-02-22T22:47:25.373Z,7.52
2023-02-22T22:50:28.871Z,7.50
2023-02-22T22:53:33.658Z,7.50
2023-02-22T22:56:37.973Z,7.45
2023-02-22T22:59:41.023Z,7.39
2023-02-22T23:02:47.690Z,7.38
2023-02-22T23:05:50.582Z,7.35
2023-02-22T23:09:12.303Z,7.30
2023-02-22T23:12:16.752Z,7.21
2023-02-22T23:15:19.408Z,7.19
2023-02-22T23:18:22.297Z,7.22
2023-02-22T23:21:25.267Z,7.15
2023-02-22T23:24:28.300Z,7.09
2023-02-22T23:27:30.905Z,7.10
2023-02-22T23:30:33.876Z,7.09
2023-02-22T23:33:38.262Z,7.09
2023-02-22T23:36:47.141Z,7.01
2023-02-22T23:39:51.030Z,6.92
2023-02-22T23:42:54.703Z,6.93
2023-02-22T23:46:01.953Z,7.08
2023-02-22T23:49:05.602Z,6.98
2023-02-22T23:52:09.021Z,6.96
2023-02-22T23:55:12.696Z,6.95
2023-02-22T23:58:15.244Z,6.91
